sensor_id;sensor_type;location;lat;lon;timestamp;pressure;altitude;pressure_sealevel;temperature;humidity
64544;BME280;50936;51.660;5.616;2023-03-25T00:00:16;99846.16;;;8.90;100.00
64544;BME280;50936;51.660;5.616;2023-03-25T00:02:46;99846.44;;;8.86;100.00
64544;BME280;50936;51.660;5.616;2023-03-25T00:05:18;99854.50;;;8.86;100.00
64544;BME280;50936;51.660;5.616;2023-03-25T00:07:50;99842.50;;;8.91;100.00
64544;BME280;50936;51.660;5.616;2023-03-25T00:10:18;99852.06;;;8.95;100.00
64544;BME280;50936;51.660;5.616;2023-03-25T00:12:45;99847.41;;;8.97;100.00
64544;BME280;50936;51.660;5.616;2023-03-25T00:15:13;99843.03;;;8.96;100.00
64544;BME280;50936;51.660;5.616;2023-03-25T00:17:41;99841.16;;;8.96;100.00
64544;BME280;50936;51.660;5.616;2023-03-25T00:20:10;99839.09;;;9.00;100.00
64544;BME280;50936;51.660;5.616;2023-03-25T00:22:39;99848.66;;;9.04;100.00
64544;BME280;50936;51.660;5.616;2023-03-25T00:25:12;99851.09;;;9.07;100.00
64544;BME280;50936;51.660;5.616;2023-03-25T00:27:45;99839.34;;;9.08;100.00
64544;BME280;50936;51.660;5.616;2023-03-25T00:30:15;99845.44;;;9.10;100.00
64544;BME280;50936;51.660;5.616;2023-03-25T00:32:43;99851.59;;;9.12;100.00
64544;BME280;50936;51.660;5.616;2023-03-25T00:35:16;99857.00;;;9.12;100.00
64544;BME280;50936;51.660;5.616;2023-03-25T00:37:47;99845.22;;;9.13;100.00
64544;BME280;50936;51.660;5.616;2023-03-25T00:40:18;99847.91;;;9.13;100.00
64544;BME280;50936;51.660;5.616;2023-03-25T00:42:45;99840.81;;;9.12;100.00
64544;BME280;50936;51.660;5.616;2023-03-25T00:45:16;99847.91;;;9.13;100.00
64544;BME280;50936;51.660;5.616;2023-03-25T00:47:43;99844.25;;;9.14;100.00
64544;BME280;50936;51.660;5.616;2023-03-25T00:50:10;99849.38;;;9.17;100.00
64544;BME280;50936;51.660;5.616;2023-03-25T00:52:37;99833.22;;;9.17;100.00
64544;BME280;50936;51.660;5.616;2023-03-25T00:55:06;99843.03;;;9.18;100.00
64544;BME280;50936;51.660;5.616;2023-03-25T00:57:33;99839.59;;;9.16;100.00
64544;BME280;50936;51.660;5.616;2023-03-25T01:00:04;99847.06;;;9.13;100.00
64544;BME280;50936;51.660;5.616;2023-03-25T01:02:34;99844.47;;;9.11;100.00
64544;BME280;50936;51.660;5.616;2023-03-25T01:05:02;99848.16;;;9.10;100.00
64544;BME280;50936;51.660;5.616;2023-03-25T01:07:30;99834.81;;;9.09;100.00
64544;BME280;50936;51.660;5.616;2023-03-25T01:09:58;99843.03;;;9.07;100.00
64544;BME280;50936;51.660;5.616;2023-03-25T01:12:25;99842.28;;;9.05;100.00
64544;BME280;50936;51.660;5.616;2023-03-25T01:14:53;99837.03;;;9.03;100.00
64544;BME280;50936;51.660;5.616;2023-03-25T01:17:21;99843.50;;;9.01;100.00
64544;BME280;50936;51.660;5.616;2023-03-25T01:19:48;99833.81;;;8.98;100.00
64544;BME280;50936;51.660;5.616;2023-03-25T01:22:15;99843.75;;;8.98;100.00
64544;BME280;50936;51.660;5.616;2023-03-25T01:24:43;99839.22;;;8.98;100.00
64544;BME280;50936;51.660;5.616;2023-03-25T01:27:10;99842.25;;;8.94;100.00
64544;BME280;50936;51.660;5.616;2023-03-25T01:29:36;99843.25;;;8.81;100.00
64544;BME280;50936;51.660;5.616;2023-03-25T01:32:04;99828.25;;;8.66;100.00
64544;BME280;50936;51.660;5.616;2023-03-25T01:34:31;99840.97;;;8.64;100.00
64544;BME280;50936;51.660;5.616;2023-03-25T01:36:59;99842.72;;;8.65;100.00
64544;BME280;50936;51.660;5.616;2023-03-25T01:39:26;99842.44;;;8.68;100.00
64544;BME280;50936;51.660;5.616;2023-03-25T01:41:53;99826.56;;;8.65;100.00
64544;BME280;50936;51.660;5.616;2023-03-25T01:46:49;99832.19;;;8.62;100.00
64544;BME280;50936;51.660;5.616;2023-03-25T01:49:21;99836.53;;;8.52;100.00
64544;BME280;50936;51.660;5.616;2023-03-25T01:51:53;99834.25;;;8.34;100.00
64544;BME280;50936;51.660;5.616;2023-03-25T01:54:28;99830.81;;;8.21;100.00
64544;BME280;50936;51.660;5.616;2023-03-25T01:56:56;99844.47;;;8.18;100.00
64544;BME280;50936;51.660;5.616;2023-03-25T01:59:25;99838.25;;;8.17;100.00
64544;BME280;50936;51.660;5.616;2023-03-25T02:01:56;99826.59;;;8.17;100.00
64544;BME280;50936;51.660;5.616;2023-03-25T02:04:34;99828.34;;;8.18;100.00
64544;BME280;50936;51.660;5.616;2023-03-25T02:07:10;99823.91;;;8.17;100.00
64544;BME280;50936;51.660;5.616;2023-03-25T02:09:38;99819.53;;;8.16;100.00
64544;BME280;50936;51.660;5.616;2023-03-25T02:12:06;99817.16;;;8.11;100.00
64544;BME280;50936;51.660;5.616;2023-03-25T02:14:34;99822.41;;;8.01;100.00
64544;BME280;50936;51.660;5.616;2023-03-25T02:23:29;99818.50;;;7.81;100.00
64544;BME280;50936;51.660;5.616;2023-03-25T02:29:22;99828.69;;;7.89;100.00
64544;BME280;50936;51.660;5.616;2023-03-25T02:32:14;99823.31;;;7.89;100.00
64544;BME280;50936;51.660;5.616;2023-03-25T02:38:04;99817.72;;;7.92;100.00
64544;BME280;50936;51.660;5.616;2023-03-25T02:40:55;99810.16;;;7.97;100.00
64544;BME280;50936;51.660;5.616;2023-03-25T02:43:35;99825.78;;;7.92;100.00
64544;BME280;50936;51.660;5.616;2023-03-25T02:46:15;99813.03;;;7.83;100.00
64544;BME280;50936;51.660;5.616;2023-03-25T02:49:06;99822.63;;;7.74;100.00
64544;BME280;50936;51.660;5.616;2023-03-25T02:51:45;99818.56;;;7.68;100.00
64544;BME280;50936;51.660;5.616;2023-03-25T02:54:19;99815.03;;;7.68;100.00
64544;BME280;50936;51.660;5.616;2023-03-25T02:56:51;99809.53;;;7.69;100.00
64544;BME280;50936;51.660;5.616;2023-03-25T02:59:24;99803.16;;;7.70;100.00
64544;BME280;50936;51.660;5.616;2023-03-25T03:01:58;99798.53;;;7.72;100.00
64544;BME280;50936;51.660;5.616;2023-03-25T03:04:29;99792.19;;;7.74;100.00
64544;BME280;50936;51.660;5.616;2023-03-25T03:06:56;99796.47;;;7.76;100.00
64544;BME280;50936;51.660;5.616;2023-03-25T03:09:31;99799.81;;;7.80;100.00
64544;BME280;50936;51.660;5.616;2023-03-25T03:12:24;99806.66;;;7.84;100.00
64544;BME280;50936;51.660;5.616;2023-03-25T03:15:26;99804.59;;;7.87;100.00
64544;BME280;50936;51.660;5.616;2023-03-25T03:18:31;99806.09;;;7.92;100.00
64544;BME280;50936;51.660;5.616;2023-03-25T03:21:27;99805.00;;;7.94;100.00
64544;BME280;50936;51.660;5.616;2023-03-25T03:27:08;99803.91;;;7.97;100.00
64544;BME280;50936;51.660;5.616;2023-03-25T03:32:12;99803.91;;;7.97;100.00
64544;BME280;50936;51.660;5.616;2023-03-25T03:34:56;99811.22;;;7.95;100.00
64544;BME280;50936;51.660;5.616;2023-03-25T03:37:33;99803.75;;;7.87;100.00
64544;BME280;50936;51.660;5.616;2023-03-25T03:40:17;99818.88;;;7.77;100.00
64544;BME280;50936;51.660;5.616;2023-03-25T03:42:57;99814.38;;;7.64;100.00
64544;BME280;50936;51.660;5.616;2023-03-25T03:45:44;99819.69;;;7.53;100.00
64544;BME280;50936;51.660;5.616;2023-03-25T03:48:28;99811.09;;;7.48;100.00
64544;BME280;50936;51.660;5.616;2023-03-25T03:51:05;99812.31;;;7.44;100.00
64544;BME280;50936;51.660;5.616;2023-03-25T03:53:51;99812.53;;;7.41;100.00
64544;BME280;50936;51.660;5.616;2023-03-25T03:56:50;99799.31;;;7.38;100.00
64544;BME280;50936;51.660;5.616;2023-03-25T04:02:39;99800.28;;;7.37;100.00
64544;BME280;50936;51.660;5.616;2023-03-25T04:05:13;99805.41;;;7.40;100.00
64544;BME280;50936;51.660;5.616;2023-03-25T04:07:47;99794.69;;;7.40;100.00
64544;BME280;50936;51.660;5.616;2023-03-25T04:13:32;99805.72;;;7.48;100.00
64544;BME280;50936;51.660;5.616;2023-03-25T04:16:02;99802.59;;;7.54;100.00
64544;BME280;50936;51.660;5.616;2023-03-25T04:18:29;99804.59;;;7.63;100.00
64544;BME280;50936;51.660;5.616;2023-03-25T04:20:59;99797.91;;;7.69;100.00
64544;BME280;50936;51.660;5.616;2023-03-25T04:23:27;99793.69;;;7.78;100.00
64544;BME280;50936;51.660;5.616;2023-03-25T04:25:57;99802.28;;;7.83;100.00
64544;BME280;50936;51.660;5.616;2023-03-25T04:28:28;99809.00;;;7.88;100.00
64544;BME280;50936;51.660;5.616;2023-03-25T04:30:57;99801.78;;;7.89;100.00
64544;BME280;50936;51.660;5.616;2023-03-25T04:33:26;99798.16;;;7.90;100.00
64544;BME280;50936;51.660;5.616;2023-03-25T04:35:57;99799.63;;;7.94;100.00
64544;BME280;50936;51.660;5.616;2023-03-25T04:38:27;99803.06;;;7.96;100.00
64544;BME280;50936;51.660;5.616;2023-03-25T04:40:56;99801.09;;;7.98;100.00
64544;BME280;50936;51.660;5.616;2023-03-25T04:43:24;99806.25;;;8.01;100.00
64544;BME280;50936;51.660;5.616;2023-03-25T04:45:50;99811.63;;;8.01;100.00
64544;BME280;50936;51.660;5.616;2023-03-25T04:48:26;99814.22;;;8.03;100.00
64544;BME280;50936;51.660;5.616;2023-03-25T04:50:57;99809.69;;;8.03;100.00
64544;BME280;50936;51.660;5.616;2023-03-25T04:53:25;99808.00;;;8.02;100.00
64544;BME280;50936;51.660;5.616;2023-03-25T04:55:53;99797.25;;;8.02;100.00
64544;BME280;50936;51.660;5.616;2023-03-25T04:58:20;99781.31;;;7.99;100.00
64544;BME280;50936;51.660;5.616;2023-03-25T05:00:49;99788.66;;;7.97;100.00
64544;BME280;50936;51.660;5.616;2023-03-25T05:03:18;99790.72;;;7.94;100.00
64544;BME280;50936;51.660;5.616;2023-03-25T05:05:50;99783.50;;;7.94;100.00
64544;BME280;50936;51.660;5.616;2023-03-25T05:08:18;99797.94;;;7.93;100.00
64544;BME280;50936;51.660;5.616;2023-03-25T05:10:47;99805.47;;;7.88;100.00
64544;BME280;50936;51.660;5.616;2023-03-25T05:13:15;99798.84;;;7.81;100.00
64544;BME280;50936;51.660;5.616;2023-03-25T05:15:42;99795.84;;;7.72;100.00
64544;BME280;50936;51.660;5.616;2023-03-25T05:18:11;99800.94;;;7.64;100.00
64544;BME280;50936;51.660;5.616;2023-03-25T05:20:42;99801.06;;;7.63;100.00
64544;BME280;50936;51.660;5.616;2023-03-25T05:23:13;99797.53;;;7.62;100.00
64544;BME280;50936;51.660;5.616;2023-03-25T05:25:44;99811.91;;;7.61;100.00
64544;BME280;50936;51.660;5.616;2023-03-25T05:28:13;99807.97;;;7.54;100.00
64544;BME280;50936;51.660;5.616;2023-03-25T05:30:41;99803.06;;;7.48;100.00
64544;BME280;50936;51.660;5.616;2023-03-25T05:33:13;99811.53;;;7.42;100.00
64544;BME280;50936;51.660;5.616;2023-03-25T05:35:43;99807.38;;;7.38;100.00
64544;BME280;50936;51.660;5.616;2023-03-25T05:38:11;99814.69;;;7.36;100.00
64544;BME280;50936;51.660;5.616;2023-03-25T05:40:39;99823.72;;;7.35;100.00
64544;BME280;50936;51.660;5.616;2023-03-25T05:43:06;99815.66;;;7.35;100.00
64544;BME280;50936;51.660;5.616;2023-03-25T05:45:33;99834.22;;;7.38;100.00
64544;BME280;50936;51.660;5.616;2023-03-25T05:48:04;99831.31;;;7.41;100.00
64544;BME280;50936;51.660;5.616;2023-03-25T05:50:31;99824.75;;;7.45;100.00
64544;BME280;50936;51.660;5.616;2023-03-25T05:52:58;99824.31;;;7.51;100.00
64544;BME280;50936;51.660;5.616;2023-03-25T05:55:25;99834.84;;;7.54;100.00
64544;BME280;50936;51.660;5.616;2023-03-25T05:57:53;99838.91;;;7.60;100.00
64544;BME280;50936;51.660;5.616;2023-03-25T06:00:20;99830.72;;;7.61;100.00
64544;BME280;50936;51.660;5.616;2023-03-25T06:02:49;99821.47;;;7.65;100.00
64544;BME280;50936;51.660;5.616;2023-03-25T06:05:16;99824.91;;;7.67;100.00
64544;BME280;50936;51.660;5.616;2023-03-25T06:07:44;99829.09;;;7.71;100.00
64544;BME280;50936;51.660;5.616;2023-03-25T06:10:13;99827.88;;;7.76;100.00
64544;BME280;50936;51.660;5.616;2023-03-25T06:12:45;99838.41;;;7.79;100.00
64544;BME280;50936;51.660;5.616;2023-03-25T06:15:15;99823.78;;;7.83;100.00
64544;BME280;50936;51.660;5.616;2023-03-25T06:17:55;99832.59;;;7.85;100.00
64544;BME280;50936;51.660;5.616;2023-03-25T06:20:22;99830.63;;;7.87;100.00
64544;BME280;50936;51.660;5.616;2023-03-25T06:22:49;99842.00;;;7.90;100.00
64544;BME280;50936;51.660;5.616;2023-03-25T06:25:18;99837.50;;;7.91;100.00
64544;BME280;50936;51.660;5.616;2023-03-25T06:27:47;99834.06;;;7.89;100.00
64544;BME280;50936;51.660;5.616;2023-03-25T06:30:19;99841.38;;;7.87;100.00
64544;BME280;50936;51.660;5.616;2023-03-25T06:32:47;99837.97;;;7.85;100.00
64544;BME280;50936;51.660;5.616;2023-03-25T06:35:17;99840.44;;;7.88;100.00
64544;BME280;50936;51.660;5.616;2023-03-25T06:37:47;99836.41;;;7.94;100.00
64544;BME280;50936;51.660;5.616;2023-03-25T06:40:25;99846.06;;;7.96;100.00
64544;BME280;50936;51.660;5.616;2023-03-25T06:42:53;99846.50;;;8.03;100.00
64544;BME280;50936;51.660;5.616;2023-03-25T06:45:35;99853.22;;;8.08;100.00
64544;BME280;50936;51.660;5.616;2023-03-25T06:48:11;99851.34;;;8.22;100.00
64544;BME280;50936;51.660;5.616;2023-03-25T06:50:37;99852.38;;;8.32;100.00
64544;BME280;50936;51.660;5.616;2023-03-25T06:53:04;99855.38;;;8.52;100.00
64544;BME280;50936;51.660;5.616;2023-03-25T06:55:31;99857.00;;;8.54;100.00
64544;BME280;50936;51.660;5.616;2023-03-25T06:57:58;99851.50;;;8.56;100.00
64544;BME280;50936;51.660;5.616;2023-03-25T07:00:25;99850.75;;;8.54;100.00
64544;BME280;50936;51.660;5.616;2023-03-25T07:02:53;99852.69;;;8.52;100.00
64544;BME280;50936;51.660;5.616;2023-03-25T07:05:21;99849.03;;;8.53;100.00
64544;BME280;50936;51.660;5.616;2023-03-25T07:07:48;99855.25;;;8.53;100.00
64544;BME280;50936;51.660;5.616;2023-03-25T07:10:15;99861.53;;;8.54;100.00
64544;BME280;50936;51.660;5.616;2023-03-25T07:12:42;99865.06;;;8.54;100.00
64544;BME280;50936;51.660;5.616;2023-03-25T07:15:09;99857.63;;;8.58;100.00
64544;BME280;50936;51.660;5.616;2023-03-25T07:17:39;99850.06;;;8.63;100.00
64544;BME280;50936;51.660;5.616;2023-03-25T07:20:06;99852.38;;;8.67;100.00
64544;BME280;50936;51.660;5.616;2023-03-25T07:22:37;99852.50;;;8.77;100.00
64544;BME280;50936;51.660;5.616;2023-03-25T07:25:04;99860.88;;;8.85;100.00
64544;BME280;50936;51.660;5.616;2023-03-25T07:27:31;99849.84;;;8.89;100.00
64544;BME280;50936;51.660;5.616;2023-03-25T07:30:05;99856.31;;;8.86;100.00
64544;BME280;50936;51.660;5.616;2023-03-25T07:32:32;99864.78;;;8.81;100.00
64544;BME280;50936;51.660;5.616;2023-03-25T07:34:59;99868.44;;;8.80;100.00
64544;BME280;50936;51.660;5.616;2023-03-25T07:37:27;99865.41;;;8.85;100.00
64544;BME280;50936;51.660;5.616;2023-03-25T07:39:59;99876.50;;;8.69;100.00
64544;BME280;50936;51.660;5.616;2023-03-25T07:42:26;99873.84;;;8.45;100.00
64544;BME280;50936;51.660;5.616;2023-03-25T07:45:11;99887.91;;;8.24;100.00
64544;BME280;50936;51.660;5.616;2023-03-25T07:47:40;99883.44;;;8.12;100.00
64544;BME280;50936;51.660;5.616;2023-03-25T07:50:07;99881.56;;;8.01;100.00
64544;BME280;50936;51.660;5.616;2023-03-25T07:52:34;99885.66;;;7.94;100.00
64544;BME280;50936;51.660;5.616;2023-03-25T07:55:01;99882.25;;;7.92;100.00
64544;BME280;50936;51.660;5.616;2023-03-25T07:57:28;99883.19;;;7.91;100.00
64544;BME280;50936;51.660;5.616;2023-03-25T07:59:55;99882.25;;;7.92;100.00
64544;BME280;50936;51.660;5.616;2023-03-25T08:02:22;99879.53;;;7.92;100.00
64544;BME280;50936;51.660;5.616;2023-03-25T08:04:49;99893.00;;;7.92;100.00
64544;BME280;50936;51.660;5.616;2023-03-25T08:07:15;99894.47;;;7.96;100.00
64544;BME280;50936;51.660;5.616;2023-03-25T08:09:42;99892.53;;;7.98;100.00
64544;BME280;50936;51.660;5.616;2023-03-25T08:12:09;99893.78;;;8.05;100.00
64544;BME280;50936;51.660;5.616;2023-03-25T08:14:36;99899.59;;;8.12;100.00
64544;BME280;50936;51.660;5.616;2023-03-25T08:17:05;99894.84;;;8.16;100.00
64544;BME280;50936;51.660;5.616;2023-03-25T08:19:32;99896.78;;;8.14;100.00
64544;BME280;50936;51.660;5.616;2023-03-25T08:21:59;99918.94;;;8.17;100.00
64544;BME280;50936;51.660;5.616;2023-03-25T08:24:27;99913.31;;;8.20;100.00
64544;BME280;50936;51.660;5.616;2023-03-25T08:26:55;99908.81;;;8.21;100.00
64544;BME280;50936;51.660;5.616;2023-03-25T08:29:22;99912.97;;;8.25;100.00
64544;BME280;50936;51.660;5.616;2023-03-25T08:31:52;99915.56;;;8.26;100.00
64544;BME280;50936;51.660;5.616;2023-03-25T08:34:21;99917.03;;;8.31;100.00
64544;BME280;50936;51.660;5.616;2023-03-25T08:36:54;99921.84;;;8.38;100.00
64544;BME280;50936;51.660;5.616;2023-03-25T08:39:21;99919.47;;;8.46;100.00
64544;BME280;50936;51.660;5.616;2023-03-25T08:41:55;99926.13;;;8.54;100.00
64544;BME280;50936;51.660;5.616;2023-03-25T08:44:24;99926.75;;;8.57;100.00
64544;BME280;50936;51.660;5.616;2023-03-25T08:46:51;99931.25;;;8.57;100.00
64544;BME280;50936;51.660;5.616;2023-03-25T08:49:18;99938.06;;;8.50;100.00
64544;BME280;50936;51.660;5.616;2023-03-25T08:51:45;99934.13;;;8.42;100.00
64544;BME280;50936;51.660;5.616;2023-03-25T08:54:12;99936.50;;;8.34;100.00
64544;BME280;50936;51.660;5.616;2023-03-25T08:56:39;99936.34;;;8.24;100.00
64544;BME280;50936;51.660;5.616;2023-03-25T08:59:06;99940.84;;;8.24;100.00
64544;BME280;50936;51.660;5.616;2023-03-25T09:01:32;99929.13;;;8.25;100.00
64544;BME280;50936;51.660;5.616;2023-03-25T09:03:59;99925.16;;;8.18;100.00
64544;BME280;50936;51.660;5.616;2023-03-25T09:06:26;99930.53;;;8.18;100.00
64544;BME280;50936;51.660;5.616;2023-03-25T09:08:53;99926.66;;;8.22;100.00
64544;BME280;50936;51.660;5.616;2023-03-25T09:11:21;99928.13;;;8.26;100.00
64544;BME280;50936;51.660;5.616;2023-03-25T09:14:02;99928.66;;;8.31;100.00
64544;BME280;50936;51.660;5.616;2023-03-25T09:16:31;99922.50;;;8.42;100.00
64544;BME280;50936;51.660;5.616;2023-03-25T09:19:00;99932.47;;;8.53;100.00
64544;BME280;50936;51.660;5.616;2023-03-25T09:21:28;99914.66;;;8.63;100.00
64544;BME280;50936;51.660;5.616;2023-03-25T09:23:55;99914.81;;;8.73;100.00
64544;BME280;50936;51.660;5.616;2023-03-25T09:26:22;99918.53;;;8.94;100.00
64544;BME280;50936;51.660;5.616;2023-03-25T09:28:49;99925.31;;;9.11;100.00
64544;BME280;50936;51.660;5.616;2023-03-25T09:31:16;99920.66;;;9.24;100.00
64544;BME280;50936;51.660;5.616;2023-03-25T09:33:44;99915.03;;;9.39;100.00
64544;BME280;50936;51.660;5.616;2023-03-25T09:36:10;99924.84;;;9.62;100.00
64544;BME280;50936;51.660;5.616;2023-03-25T09:38:38;99917.97;;;9.70;100.00
64544;BME280;50936;51.660;5.616;2023-03-25T09:46:44;99935.59;;;9.85;100.00
64544;BME280;50936;51.660;5.616;2023-03-25T09:49:17;99931.19;;;9.95;100.00
64544;BME280;50936;51.660;5.616;2023-03-25T09:51:50;99930.69;;;10.01;100.00
64544;BME280;50936;51.660;5.616;2023-03-25T09:54:29;99927.78;;;9.93;100.00
64544;BME280;50936;51.660;5.616;2023-03-25T09:57:03;99936.09;;;9.90;100.00
64544;BME280;50936;51.660;5.616;2023-03-25T09:59:46;99939.03;;;9.87;100.00
64544;BME280;50936;51.660;5.616;2023-03-25T10:14:11;99956.06;;;9.31;100.00
64544;BME280;50936;51.660;5.616;2023-03-25T10:20:03;99958.56;;;8.99;100.00
64544;BME280;50936;51.660;5.616;2023-03-25T10:25:23;99953.06;;;9.00;100.00
64544;BME280;50936;51.660;5.616;2023-03-25T10:27:56;99956.16;;;9.07;100.00
64544;BME280;50936;51.660;5.616;2023-03-25T10:30:31;99963.53;;;9.28;100.00
64544;BME280;50936;51.660;5.616;2023-03-25T10:33:11;99967.47;;;9.35;100.00
64544;BME280;50936;51.660;5.616;2023-03-25T10:35:46;99953.16;;;9.34;100.00
64544;BME280;50936;51.660;5.616;2023-03-25T10:38:20;99969.94;;;9.38;100.00
64544;BME280;50936;51.660;5.616;2023-03-25T10:41:06;99970.41;;;9.32;100.00
64544;BME280;50936;51.660;5.616;2023-03-25T10:43:45;99958.88;;;9.18;100.00
64544;BME280;50936;51.660;5.616;2023-03-25T10:46:42;99976.31;;;9.48;100.00
64544;BME280;50936;51.660;5.616;2023-03-25T10:49:39;99975.56;;;9.69;100.00
64544;BME280;50936;51.660;5.616;2023-03-25T10:52:07;99966.03;;;9.64;100.00
64544;BME280;50936;51.660;5.616;2023-03-25T10:54:38;99967.47;;;9.46;100.00
64544;BME280;50936;51.660;5.616;2023-03-25T10:57:11;99972.63;;;9.38;100.00
64544;BME280;50936;51.660;5.616;2023-03-25T11:00:28;99985.00;;;9.40;100.00
64544;BME280;50936;51.660;5.616;2023-03-25T11:02:55;99973.50;;;9.50;100.00
64544;BME280;50936;51.660;5.616;2023-03-25T11:05:25;99988.31;;;9.55;100.00
64544;BME280;50936;51.660;5.616;2023-03-25T11:07:58;99988.31;;;9.55;100.00
64544;BME280;50936;51.660;5.616;2023-03-25T11:10:50;99989.31;;;9.54;100.00
64544;BME280;50936;51.660;5.616;2023-03-25T11:13:27;99980.00;;;9.58;100.00
64544;BME280;50936;51.660;5.616;2023-03-25T11:16:01;99982.69;;;9.58;100.00
64544;BME280;50936;51.660;5.616;2023-03-25T11:18:33;99984.88;;;9.53;100.00
64544;BME280;50936;51.660;5.616;2023-03-25T11:21:07;99993.09;;;9.40;100.00
64544;BME280;50936;51.660;5.616;2023-03-25T11:23:48;99986.06;;;9.27;100.00
64544;BME280;50936;51.660;5.616;2023-03-25T11:26:28;99997.44;;;9.19;100.00
64544;BME280;50936;51.660;5.616;2023-03-25T11:29:12;99991.44;;;9.15;100.00
64544;BME280;50936;51.660;5.616;2023-03-25T11:31:42;99979.44;;;9.19;100.00
64544;BME280;50936;51.660;5.616;2023-03-25T11:37:06;99983.88;;;9.43;100.00
64544;BME280;50936;51.660;5.616;2023-03-25T11:39:41;99992.34;;;9.38;100.00
64544;BME280;50936;51.660;5.616;2023-03-25T11:42:13;99993.44;;;9.36;100.00
64544;BME280;50936;51.660;5.616;2023-03-25T11:44:50;99991.50;;;9.38;100.00
64544;BME280;50936;51.660;5.616;2023-03-25T11:47:25;100003.34;;;9.35;100.00
64544;BME280;50936;51.660;5.616;2023-03-25T11:49:57;99996.88;;;9.38;100.00
64544;BME280;50936;51.660;5.616;2023-03-25T11:52:30;99981.69;;;9.48;100.00
64544;BME280;50936;51.660;5.616;2023-03-25T11:55:31;99987.97;;;9.71;100.00
64544;BME280;50936;51.660;5.616;2023-03-25T11:58:17;99986.50;;;9.90;100.00
64544;BME280;50936;51.660;5.616;2023-03-25T12:00:48;99977.53;;;9.78;100.00
64544;BME280;50936;51.660;5.616;2023-03-25T12:03:20;99984.63;;;9.45;100.00
64544;BME280;50936;51.660;5.616;2023-03-25T12:08:47;99991.94;;;9.20;100.00
64544;BME280;50936;51.660;5.616;2023-03-25T12:15:21;99963.31;;;9.31;100.00
64544;BME280;50936;51.660;5.616;2023-03-25T12:17:49;99977.25;;;9.36;100.00
64544;BME280;50936;51.660;5.616;2023-03-25T12:23:40;99972.63;;;9.72;100.00
64544;BME280;50936;51.660;5.616;2023-03-25T12:26:13;99968.09;;;9.72;100.00
64544;BME280;50936;51.660;5.616;2023-03-25T12:29:11;99977.91;;;9.62;100.00
64544;BME280;50936;51.660;5.616;2023-03-25T12:32:46;99967.25;;;9.49;100.00
64544;BME280;50936;51.660;5.616;2023-03-25T12:35:08;99968.50;;;8.98;100.00
64544;BME280;50936;51.660;5.616;2023-03-25T12:41:19;99965.53;;;9.48;100.00
64544;BME280;50936;51.660;5.616;2023-03-25T12:50:12;99967.44;;;10.25;100.00
64544;BME280;50936;51.660;5.616;2023-03-25T13:02:03;99962.47;;;11.06;100.00
64544;BME280;50936;51.660;5.616;2023-03-25T13:04:42;99958.75;;;11.18;100.00
64544;BME280;50936;51.660;5.616;2023-03-25T13:07:41;99974.97;;;11.18;100.00
64544;BME280;50936;51.660;5.616;2023-03-25T13:10:16;99973.16;;;11.08;100.00
64544;BME280;50936;51.660;5.616;2023-03-25T13:12:51;99985.66;;;10.99;100.00
64544;BME280;50936;51.660;5.616;2023-03-25T13:15:25;99978.50;;;10.98;100.00
64544;BME280;50936;51.660;5.616;2023-03-25T13:18:00;99987.59;;;10.97;100.00
64544;BME280;50936;51.660;5.616;2023-03-25T13:20:33;99976.28;;;11.03;100.00
64544;BME280;50936;51.660;5.616;2023-03-25T13:23:07;99983.13;;;11.07;100.00
64544;BME280;50936;51.660;5.616;2023-03-25T13:25:53;99987.41;;;11.10;100.00
64544;BME280;50936;51.660;5.616;2023-03-25T13:28:39;99973.25;;;11.17;100.00
64544;BME280;50936;51.660;5.616;2023-03-25T13:31:15;99978.13;;;11.24;100.00
64544;BME280;50936;51.660;5.616;2023-03-25T13:33:52;99979.78;;;11.36;100.00
64544;BME280;50936;51.660;5.616;2023-03-25T13:36:33;99983.91;;;11.40;100.00
64544;BME280;50936;51.660;5.616;2023-03-25T13:39:21;99978.25;;;11.43;100.00
64544;BME280;50936;51.660;5.616;2023-03-25T13:42:02;99970.31;;;11.51;100.00
64544;BME280;50936;51.660;5.616;2023-03-25T13:44:38;99970.41;;;11.92;100.00
64544;BME280;50936;51.660;5.616;2023-03-25T13:47:19;99973.97;;;12.52;100.00
64544;BME280;50936;51.660;5.616;2023-03-25T13:50:19;99987.28;;;13.04;93.86
64544;BME280;50936;51.660;5.616;2023-03-25T13:53:47;99982.13;;;13.21;89.78
64544;BME280;50936;51.660;5.616;2023-03-25T13:56:27;99973.88;;;12.93;91.72
64544;BME280;50936;51.660;5.616;2023-03-25T14:02:33;99985.81;;;13.29;94.36
64544;BME280;50936;51.660;5.616;2023-03-25T14:14:17;99991.84;;;12.94;80.56
64544;BME280;50936;51.660;5.616;2023-03-25T14:16:52;100001.66;;;12.66;84.48
64544;BME280;50936;51.660;5.616;2023-03-25T14:19:32;99998.66;;;12.69;87.76
64544;BME280;50936;51.660;5.616;2023-03-25T14:22:12;99991.25;;;12.81;83.29
64544;BME280;50936;51.660;5.616;2023-03-25T14:24:45;99987.56;;;12.92;79.88
64544;BME280;50936;51.660;5.616;2023-03-25T14:27:28;99989.53;;;12.80;79.37
64544;BME280;50936;51.660;5.616;2023-03-25T14:29:59;99991.81;;;12.75;80.31
64544;BME280;50936;51.660;5.616;2023-03-25T14:32:39;100003.94;;;12.70;81.04
64544;BME280;50936;51.660;5.616;2023-03-25T14:43:37;100008.59;;;12.49;81.00
64544;BME280;50936;51.660;5.616;2023-03-25T14:54:03;100037.50;;;13.08;83.85
64544;BME280;50936;51.660;5.616;2023-03-25T14:56:50;100016.22;;;13.14;80.33
64544;BME280;50936;51.660;5.616;2023-03-25T14:59:24;100024.66;;;13.10;83.30
64544;BME280;50936;51.660;5.616;2023-03-25T15:02:02;100003.81;;;13.40;78.79
64544;BME280;50936;51.660;5.616;2023-03-25T15:04:36;100014.38;;;13.43;79.24
64544;BME280;50936;51.660;5.616;2023-03-25T15:07:09;100024.56;;;13.89;78.31
64544;BME280;50936;51.660;5.616;2023-03-25T15:09:50;100035.78;;;13.94;75.61
64544;BME280;50936;51.660;5.616;2023-03-25T15:12:22;100023.22;;;13.45;77.66
64544;BME280;50936;51.660;5.616;2023-03-25T15:15:04;100031.50;;;12.95;78.48
64544;BME280;50936;51.660;5.616;2023-03-25T15:17:50;100039.16;;;12.70;79.67
64544;BME280;50936;51.660;5.616;2023-03-25T15:25:46;100035.47;;;12.91;80.78
64544;BME280;50936;51.660;5.616;2023-03-25T15:39:58;100041.59;;;12.23;81.53